Key West, FL

18:32 EDT le 26 avril 2015 (GMT -0400)
Big Coppitt Key Gulfside | | Change Station
CLOSE
Current Station
Stations météorologiques personnelles
Location: Key West, FL
Altitude: 31 ft
Stations météo à proximité

Alt. 31 ft 24.60 °N, 81.67 °W | Updated 6 minutes ago

Ciel dégagé
Ciel dégagé
86.4 ° F
Paraît 97 ° F
N
2.7
Vent Variable Vent de SE

Aujourd'hui
Haut(e) -- | Bas -- ° F
--% Risque de précip.
Hier
Haut(e) -- | Bas -- ° F
Precip. -- pouce
6:55 AM 7:53 PM
Premier quartier, 59% visible
Pression 29.79 pouce
Visibilité 10.0 Miles terrestres
Nuages Ciel dégagé
indice de chaleur 97 ° F
Point de rosée 76 ° F
Humidité 72%
Précipitations 0.00 pouce
Profondeur de la couche neigeuse Non disponible.
UV 3 sur 12
Pollen 6.50 sur 12
Qualité de l'air Non disponible.
Flu Activity Local Activity
METAR KNQX 262153Z 29011KT 10SM CLR 32/23 A2980 RMK AO2 SLP088 T03170228 $

More Conditions Fewer Conditions

Pression 29.79 pouce
Visibilité 10.0 Miles terrestres
Nuages Ciel dégagé
indice de chaleur 97 ° F
Point de rosée 76 ° F
Humidité 72%
Précipitations 0.00 pouce
Profondeur de la couche neigeuse Non disponible.
UV 3 sur 12
Pollen 6.50 sur 12
Qualité de l'air Non disponible.
Flu Activity Local Activity
METAR KNQX 262153Z 29011KT 10SM CLR 32/23 A2980 RMK AO2 SLP088 T03170228 $

More Conditions Fewer Conditions

The full scope of the disaster following a powerful 7.8-magnitude earthquake in Nepal may not come into view for days, but global charities are already sending emergency aid. Click to see how you can help.

10-Day Weather Forecast

Almanac

Astronomie

Apr. 26, 2015 Lever Coucher
Temps réel
Crépuscule civil
Crépuscule nautique
Crépuscule astronomique
Lune
Durée de lumière visible
Longueur du jour
Tomorrow will be .
, % of the Moon is Illuminated

Extrêmes aujourd'hui

State Highs State Lows

Community

WunderPhotos

Upload Photos

1,817,149 Photos téléchargées !

WunderBlogs® & News

Nearby

Qualité de l'air

  Qualité de l'air Indice de la qualité de l'air Polluant
Not available.

Épaisseur de neige

Station Depth Altitude

Activité sismique

Ville Distance Mag. Time & Date
Minimum magnitude displayed is 2.5.

Températures des eaux côtières

Lieu Température

Stations

Stations météo à proximité

Emplacement de la station Température Refroidissement éolien Point de rosée Humidité Vent Precip. Alt. Mise à jour Type